sensor_id;sensor_type;location;lat;lon;timestamp;pressure;altitude;pressure_sealevel;temperature;humidity
5777;BME280;2914;42.668;23.346;2023-03-22T00:01:43;94165.66;;;12.03;100.00
5777;BME280;2914;42.668;23.346;2023-03-22T00:04:12;94166.11;;;11.95;100.00
5777;BME280;2914;42.668;23.346;2023-03-22T00:06:42;94167.43;;;11.95;100.00
5777;BME280;2914;42.668;23.346;2023-03-22T00:09:12;94158.88;;;12.01;100.00
5777;BME280;2914;42.668;23.346;2023-03-22T00:11:41;94157.88;;;12.06;100.00
5777;BME280;2914;42.668;23.346;2023-03-22T00:14:10;94156.42;;;12.08;100.00
5777;BME280;2914;42.668;23.346;2023-03-22T00:16:39;94159.06;;;12.08;100.00
5777;BME280;2914;42.668;23.346;2023-03-22T00:19:08;94159.73;;;12.14;100.00
5777;BME280;2914;42.668;23.346;2023-03-22T00:21:37;94160.89;;;12.19;100.00
5777;BME280;2914;42.668;23.346;2023-03-22T00:24:07;94158.92;;;12.17;100.00
5777;BME280;2914;42.668;23.346;2023-03-22T00:26:36;94155.39;;;12.00;100.00
5777;BME280;2914;42.668;23.346;2023-03-22T00:29:05;94152.43;;;11.99;100.00
5777;BME280;2914;42.668;23.346;2023-03-22T00:31:34;94151.11;;;11.99;100.00
5777;BME280;2914;42.668;23.346;2023-03-22T00:34:03;94141.79;;;11.87;100.00
5777;BME280;2914;42.668;23.346;2023-03-22T00:36:32;94156.60;;;11.80;100.00
5777;BME280;2914;42.668;23.346;2023-03-22T00:39:05;94149.97;;;11.71;100.00
5777;BME280;2914;42.668;23.346;2023-03-22T00:41:34;94149.80;;;11.73;100.00
5777;BME280;2914;42.668;23.346;2023-03-22T00:44:03;94151.50;;;11.82;100.00
5777;BME280;2914;42.668;23.346;2023-03-22T00:46:32;94146.24;;;11.91;100.00
5777;BME280;2914;42.668;23.346;2023-03-22T00:49:01;94146.97;;;11.97;100.00
5777;BME280;2914;42.668;23.346;2023-03-22T00:51:30;94140.84;;;12.00;100.00
5777;BME280;2914;42.668;23.346;2023-03-22T00:53:59;94148.94;;;11.99;100.00
5777;BME280;2914;42.668;23.346;2023-03-22T00:56:28;94147.14;;;11.99;100.00
5777;BME280;2914;42.668;23.346;2023-03-22T00:58:59;94141.19;;;12.01;100.00
5777;BME280;2914;42.668;23.346;2023-03-22T01:01:28;94143.17;;;11.95;100.00
5777;BME280;2914;42.668;23.346;2023-03-22T01:03:57;94143.27;;;11.94;100.00
5777;BME280;2914;42.668;23.346;2023-03-22T01:06:26;94136.56;;;11.95;100.00
5777;BME280;2914;42.668;23.346;2023-03-22T01:08:55;94141.86;;;11.99;100.00
5777;BME280;2914;42.668;23.346;2023-03-22T01:11:24;94142.00;;;12.02;100.00
5777;BME280;2914;42.668;23.346;2023-03-22T01:13:54;94134.75;;;12.04;100.00
5777;BME280;2914;42.668;23.346;2023-03-22T01:16:23;94129.45;;;12.00;100.00
5777;BME280;2914;42.668;23.346;2023-03-22T01:18:52;94134.75;;;12.04;100.00
5777;BME280;2914;42.668;23.346;2023-03-22T01:21:21;94133.61;;;12.07;100.00
5777;BME280;2914;42.668;23.346;2023-03-22T01:23:50;94127.66;;;12.09;100.00
5777;BME280;2914;42.668;23.346;2023-03-22T01:26:19;94126.67;;;12.10;100.00
5777;BME280;2914;42.668;23.346;2023-03-22T01:28:48;94123.70;;;12.13;100.00
5777;BME280;2914;42.668;23.346;2023-03-22T01:31:17;94123.22;;;12.13;100.00
5777;BME280;2914;42.668;23.346;2023-03-22T01:33:46;94122.38;;;12.13;100.00
5777;BME280;2914;42.668;23.346;2023-03-22T01:36:15;94116.27;;;12.08;100.00
5777;BME280;2914;42.668;23.346;2023-03-22T01:38:44;94123.53;;;12.14;100.00
5777;BME280;2914;42.668;23.346;2023-03-22T01:41:14;94113.10;;;12.04;100.00
5777;BME280;2914;42.668;23.346;2023-03-22T01:43:43;94114.41;;;12.00;100.00
5777;BME280;2914;42.668;23.346;2023-03-22T01:46:12;94114.23;;;11.98;100.00
5777;BME280;2914;42.668;23.346;2023-03-22T01:48:42;94116.73;;;11.95;100.00
5777;BME280;2914;42.668;23.346;2023-03-22T01:51:15;94110.45;;;12.00;100.00
5777;BME280;2914;42.668;23.346;2023-03-22T01:56:27;94110.13;;;11.95;100.00
5777;BME280;2914;42.668;23.346;2023-03-22T01:58:57;94108.06;;;11.81;100.00
5777;BME280;2914;42.668;23.346;2023-03-22T02:01:28;94103.45;;;11.79;100.00
5777;BME280;2914;42.668;23.346;2023-03-22T02:04:00;94110.72;;;11.85;100.00
5777;BME280;2914;42.668;23.346;2023-03-22T02:06:30;94108.41;;;11.86;100.00
5777;BME280;2914;42.668;23.346;2023-03-22T02:08:59;94108.72;;;11.75;100.00
5777;BME280;2914;42.668;23.346;2023-03-22T02:11:31;94113.33;;;11.77;100.00
5777;BME280;2914;42.668;23.346;2023-03-22T02:14:10;94111.69;;;11.80;100.00
5777;BME280;2914;42.668;23.346;2023-03-22T02:16:44;94105.72;;;11.69;100.00
5777;BME280;2914;42.668;23.346;2023-03-22T02:28:43;94112.85;;;11.85;100.00
5777;BME280;2914;42.668;23.346;2023-03-22T02:34:32;94118.81;;;11.83;100.00
5777;BME280;2914;42.668;23.346;2023-03-22T02:40:10;94125.05;;;11.74;100.00
5777;BME280;2914;42.668;23.346;2023-03-22T02:42:46;94122.41;;;11.74;100.00
5777;BME280;2914;42.668;23.346;2023-03-22T02:47:57;94128.70;;;11.81;100.00
5777;BME280;2914;42.668;23.346;2023-03-22T02:53:11;94132.37;;;11.88;100.00
5777;BME280;2914;42.668;23.346;2023-03-22T02:55:43;94143.59;;;11.86;100.00
5777;BME280;2914;42.668;23.346;2023-03-22T02:58:15;94134.17;;;11.88;100.00
5777;BME280;2914;42.668;23.346;2023-03-22T03:00:46;94138.97;;;11.84;100.00
5777;BME280;2914;42.668;23.346;2023-03-22T03:03:18;94129.72;;;11.84;100.00
5777;BME280;2914;42.668;23.346;2023-03-22T03:05:53;94135.84;;;11.89;100.00
5777;BME280;2914;42.668;23.346;2023-03-22T03:08:23;94130.70;;;11.83;100.00
5777;BME280;2914;42.668;23.346;2023-03-22T03:10:54;94131.34;;;11.81;100.00
5777;BME280;2914;42.668;23.346;2023-03-22T03:13:23;94137.80;;;11.79;100.00
5777;BME280;2914;42.668;23.346;2023-03-22T03:15:54;94135.25;;;11.69;100.00
5777;BME280;2914;42.668;23.346;2023-03-22T03:18:35;94138.31;;;11.48;100.00
5777;BME280;2914;42.668;23.346;2023-03-22T03:21:07;94138.57;;;11.32;100.00
5777;BME280;2914;42.668;23.346;2023-03-22T03:23:46;94138.16;;;11.19;100.00
5777;BME280;2914;42.668;23.346;2023-03-22T03:26:19;94138.36;;;11.26;100.00
5777;BME280;2914;42.668;23.346;2023-03-22T03:28:51;94139.70;;;11.30;100.00
5777;BME280;2914;42.668;23.346;2023-03-22T03:31:29;94140.16;;;11.21;100.00
5777;BME280;2914;42.668;23.346;2023-03-22T03:34:03;94140.69;;;11.29;100.00
5777;BME280;2914;42.668;23.346;2023-03-22T03:36:34;94140.05;;;11.31;100.00
5777;BME280;2914;42.668;23.346;2023-03-22T03:39:07;94144.46;;;11.26;100.00
5777;BME280;2914;42.668;23.346;2023-03-22T03:44:21;94140.55;;;11.34;100.00
5777;BME280;2914;42.668;23.346;2023-03-22T03:46:51;94145.58;;;11.19;100.00
5777;BME280;2914;42.668;23.346;2023-03-22T03:49:22;94149.25;;;11.23;100.00
5777;BME280;2914;42.668;23.346;2023-03-22T03:51:55;94146.45;;;11.24;100.00
5777;BME280;2914;42.668;23.346;2023-03-22T03:54:24;94154.29;;;11.12;100.00
5777;BME280;2914;42.668;23.346;2023-03-22T03:56:53;94146.55;;;11.14;100.00
5777;BME280;2914;42.668;23.346;2023-03-22T03:59:22;94148.01;;;11.09;100.00
5777;BME280;2914;42.668;23.346;2023-03-22T04:01:51;94155.53;;;10.99;100.00
5777;BME280;2914;42.668;23.346;2023-03-22T04:04:22;94155.39;;;11.05;100.00
5777;BME280;2914;42.668;23.346;2023-03-22T04:06:54;94155.61;;;11.12;100.00
5777;BME280;2914;42.668;23.346;2023-03-22T04:09:24;94155.80;;;11.14;100.00
5777;BME280;2914;42.668;23.346;2023-03-22T04:11:55;94157.84;;;11.29;100.00
5777;BME280;2914;42.668;23.346;2023-03-22T04:14:25;94154.23;;;11.30;100.00
5777;BME280;2914;42.668;23.346;2023-03-22T04:16:55;94156.20;;;11.32;100.00
5777;BME280;2914;42.668;23.346;2023-03-22T04:19:24;94162.98;;;11.34;100.00
5777;BME280;2914;42.668;23.346;2023-03-22T04:21:53;94167.96;;;11.33;100.00
5777;BME280;2914;42.668;23.346;2023-03-22T04:24:22;94159.59;;;11.16;100.00
5777;BME280;2914;42.668;23.346;2023-03-22T04:26:51;94165.91;;;11.23;100.00
5777;BME280;2914;42.668;23.346;2023-03-22T04:29:20;94162.68;;;11.11;100.00
5777;BME280;2914;42.668;23.346;2023-03-22T04:31:49;94169.33;;;11.19;100.00
5777;BME280;2914;42.668;23.346;2023-03-22T04:34:19;94169.18;;;11.17;100.00
5777;BME280;2914;42.668;23.346;2023-03-22T04:36:48;94170.34;;;11.18;100.00
5777;BME280;2914;42.668;23.346;2023-03-22T04:39:17;94170.59;;;11.11;100.00
5777;BME280;2914;42.668;23.346;2023-03-22T04:41:46;94173.88;;;11.05;100.00
5777;BME280;2914;42.668;23.346;2023-03-22T04:44:15;94175.03;;;11.07;100.00
5777;BME280;2914;42.668;23.346;2023-03-22T04:46:44;94173.72;;;11.07;100.00
5777;BME280;2914;42.668;23.346;2023-03-22T04:51:50;94178.89;;;11.16;100.00
5777;BME280;2914;42.668;23.346;2023-03-22T04:56:58;94184.11;;;11.08;100.00
5777;BME280;2914;42.668;23.346;2023-03-22T04:59:28;94186.75;;;11.08;100.00
5777;BME280;2914;42.668;23.346;2023-03-22T05:01:59;94191.53;;;11.05;100.00
5777;BME280;2914;42.668;23.346;2023-03-22T05:04:28;94194.14;;;11.00;100.00
5777;BME280;2914;42.668;23.346;2023-03-22T05:06:58;94197.12;;;11.06;100.00
5777;BME280;2914;42.668;23.346;2023-03-22T05:12:05;94196.42;;;11.22;100.00
5777;BME280;2914;42.668;23.346;2023-03-22T05:14:34;94195.26;;;11.20;100.00
5777;BME280;2914;42.668;23.346;2023-03-22T05:17:03;94206.80;;;11.19;100.00
5777;BME280;2914;42.668;23.346;2023-03-22T05:19:32;94198.56;;;11.22;100.00
5777;BME280;2914;42.668;23.346;2023-03-22T05:22:01;94206.36;;;11.06;100.00
5777;BME280;2914;42.668;23.346;2023-03-22T05:24:30;94204.34;;;10.99;100.00
5777;BME280;2914;42.668;23.346;2023-03-22T05:26:59;94212.92;;;11.01;100.00
5777;BME280;2914;42.668;23.346;2023-03-22T05:29:30;94211.01;;;11.08;100.00
5777;BME280;2914;42.668;23.346;2023-03-22T05:32:01;94212.64;;;11.05;100.00
5777;BME280;2914;42.668;23.346;2023-03-22T05:34:30;94210.88;;;10.91;100.00
5777;BME280;2914;42.668;23.346;2023-03-22T05:37:02;94215.25;;;11.00;100.00
5777;BME280;2914;42.668;23.346;2023-03-22T05:39:32;94216.57;;;11.00;100.00
5777;BME280;2914;42.668;23.346;2023-03-22T05:42:01;94212.92;;;11.01;100.00
5777;BME280;2914;42.668;23.346;2023-03-22T05:44:30;94218.39;;;11.04;100.00
5777;BME280;2914;42.668;23.346;2023-03-22T05:49:36;94216.03;;;11.19;100.00
5777;BME280;2914;42.668;23.346;2023-03-22T05:52:05;94211.83;;;11.08;100.00
5777;BME280;2914;42.668;23.346;2023-03-22T05:54:35;94222.48;;;11.20;100.00
5777;BME280;2914;42.668;23.346;2023-03-22T05:57:04;94225.84;;;11.27;100.00
5777;BME280;2914;42.668;23.346;2023-03-22T05:59:33;94231.80;;;11.33;100.00
5777;BME280;2914;42.668;23.346;2023-03-22T06:02:03;94241.39;;;11.34;100.00
5777;BME280;2914;42.668;23.346;2023-03-22T06:04:32;94237.27;;;11.35;100.00
5777;BME280;2914;42.668;23.346;2023-03-22T06:07:01;94235.95;;;11.35;100.00
5777;BME280;2914;42.668;23.346;2023-03-22T06:09:30;94233.73;;;11.79;100.00
5777;BME280;2914;42.668;23.346;2023-03-22T06:11:59;94241.42;;;12.33;100.00
5777;BME280;2914;42.668;23.346;2023-03-22T06:14:28;94241.72;;;12.22;100.00
5777;BME280;2914;42.668;23.346;2023-03-22T06:16:58;94244.50;;;12.12;100.00
5777;BME280;2914;42.668;23.346;2023-03-22T06:19:27;94243.55;;;11.91;100.00
5777;BME280;2914;42.668;23.346;2023-03-22T06:21:56;94250.98;;;11.61;100.00
5777;BME280;2914;42.668;23.346;2023-03-22T06:24:25;94247.05;;;11.65;100.00
5777;BME280;2914;42.668;23.346;2023-03-22T06:26:54;94249.91;;;11.46;100.00
5777;BME280;2914;42.668;23.346;2023-03-22T06:29:23;94247.44;;;11.52;100.00
5777;BME280;2914;42.668;23.346;2023-03-22T06:31:53;94246.59;;;11.48;100.00
5777;BME280;2914;42.668;23.346;2023-03-22T06:34:22;94255.87;;;11.52;100.00
5777;BME280;2914;42.668;23.346;2023-03-22T06:36:51;94254.58;;;11.56;100.00
5777;BME280;2914;42.668;23.346;2023-03-22T06:39:20;94258.91;;;11.61;100.00
5777;BME280;2914;42.668;23.346;2023-03-22T06:41:50;94263.55;;;11.67;100.00
5777;BME280;2914;42.668;23.346;2023-03-22T06:44:19;94266.38;;;11.70;100.00
5777;BME280;2914;42.668;23.346;2023-03-22T06:46:49;94266.22;;;11.71;100.00
5777;BME280;2914;42.668;23.346;2023-03-22T06:49:18;94262.59;;;11.73;100.00
5777;BME280;2914;42.668;23.346;2023-03-22T06:51:48;94266.72;;;11.71;100.00
5777;BME280;2914;42.668;23.346;2023-03-22T06:54:17;94267.09;;;11.76;100.00
5777;BME280;2914;42.668;23.346;2023-03-22T06:56:47;94269.39;;;11.75;100.00
5777;BME280;2914;42.668;23.346;2023-03-22T06:59:16;94269.59;;;11.82;100.00
5777;BME280;2914;42.668;23.346;2023-03-22T07:01:45;94275.88;;;11.85;100.00
5777;BME280;2914;42.668;23.346;2023-03-22T07:04:15;94279.55;;;11.92;100.00
5777;BME280;2914;42.668;23.346;2023-03-22T07:06:44;94281.21;;;11.93;100.00
5777;BME280;2914;42.668;23.346;2023-03-22T07:09:13;94286.59;;;11.79;100.00
5777;BME280;2914;42.668;23.346;2023-03-22T07:11:42;94287.94;;;11.83;100.00
5777;BME280;2914;42.668;23.346;2023-03-22T07:14:11;94286.95;;;11.84;100.00
5777;BME280;2914;42.668;23.346;2023-03-22T07:16:40;94285.16;;;11.89;100.00
5777;BME280;2914;42.668;23.346;2023-03-22T07:19:09;94286.80;;;11.86;100.00
5777;BME280;2914;42.668;23.346;2023-03-22T07:21:38;94291.42;;;11.88;100.00
5777;BME280;2914;42.668;23.346;2023-03-22T07:24:08;94296.12;;;11.94;100.00
5777;BME280;2914;42.668;23.346;2023-03-22T07:26:38;94299.37;;;11.92;100.00
5777;BME280;2914;42.668;23.346;2023-03-22T07:29:08;94301.09;;;11.97;100.00
5777;BME280;2914;42.668;23.346;2023-03-22T07:31:37;94300.37;;;11.91;100.00
5777;BME280;2914;42.668;23.346;2023-03-22T07:34:07;94308.84;;;11.95;100.00
5777;BME280;2914;42.668;23.346;2023-03-22T07:36:36;94306.70;;;11.94;100.00
5777;BME280;2914;42.668;23.346;2023-03-22T07:39:05;94308.86;;;11.99;99.91
5777;BME280;2914;42.668;23.346;2023-03-22T07:41:34;94309.78;;;11.94;100.00
5777;BME280;2914;42.668;23.346;2023-03-22T07:44:03;94310.58;;;11.86;100.00
5777;BME280;2914;42.668;23.346;2023-03-22T07:46:33;94309.69;;;11.95;99.65
5777;BME280;2914;42.668;23.346;2023-03-22T07:49:02;94316.30;;;11.95;99.93
5777;BME280;2914;42.668;23.346;2023-03-22T07:51:31;94315.57;;;11.93;99.58
5777;BME280;2914;42.668;23.346;2023-03-22T07:54:01;94319.52;;;11.89;100.00
5777;BME280;2914;42.668;23.346;2023-03-22T07:56:30;94322.61;;;11.80;100.00
5777;BME280;2914;42.668;23.346;2023-03-22T07:58:59;94319.46;;;11.81;100.00
5777;BME280;2914;42.668;23.346;2023-03-22T08:01:28;94319.78;;;11.78;100.00
5777;BME280;2914;42.668;23.346;2023-03-22T08:03:57;94315.07;;;11.67;100.00
5777;BME280;2914;42.668;23.346;2023-03-22T08:06:27;94325.20;;;11.50;100.00
5777;BME280;2914;42.668;23.346;2023-03-22T08:08:56;94325.30;;;11.62;100.00
5777;BME280;2914;42.668;23.346;2023-03-22T08:11:25;94317.59;;;11.51;100.00
5777;BME280;2914;42.668;23.346;2023-03-22T08:13:54;94321.45;;;11.61;100.00
5777;BME280;2914;42.668;23.346;2023-03-22T08:19:07;94319.38;;;11.68;100.00
5777;BME280;2914;42.668;23.346;2023-03-22T08:21:36;94320.95;;;11.57;100.00
5777;BME280;2914;42.668;23.346;2023-03-22T08:24:06;94324.10;;;11.61;100.00
5777;BME280;2914;42.668;23.346;2023-03-22T08:26:35;94315.36;;;11.60;100.00
5777;BME280;2914;42.668;23.346;2023-03-22T08:29:04;94326.77;;;11.65;100.00
5777;BME280;2914;42.668;23.346;2023-03-22T08:31:34;94327.30;;;11.68;100.00
5777;BME280;2914;42.668;23.346;2023-03-22T08:34:03;94328.97;;;11.69;100.00
5777;BME280;2914;42.668;23.346;2023-03-22T08:36:32;94332.64;;;11.77;100.00
5777;BME280;2914;42.668;23.346;2023-03-22T08:39:01;94325.14;;;11.64;100.00
5777;BME280;2914;42.668;23.346;2023-03-22T08:41:31;94325.25;;;11.80;100.00
5777;BME280;2914;42.668;23.346;2023-03-22T08:44:00;94328.39;;;11.84;100.00
5777;BME280;2914;42.668;23.346;2023-03-22T08:46:29;94333.23;;;11.88;100.00
5777;BME280;2914;42.668;23.346;2023-03-22T08:48:58;94332.70;;;11.85;100.00
5777;BME280;2914;42.668;23.346;2023-03-22T08:51:29;94339.07;;;11.96;100.00
5777;BME280;2914;42.668;23.346;2023-03-22T08:53:58;94341.55;;;11.98;100.00
5777;BME280;2914;42.668;23.346;2023-03-22T08:56:31;94334.45;;;11.94;100.00
5777;BME280;2914;42.668;23.346;2023-03-22T08:59:02;94338.86;;;11.94;100.00
5777;BME280;2914;42.668;23.346;2023-03-22T09:01:31;94340.47;;;11.86;100.00
5777;BME280;2914;42.668;23.346;2023-03-22T09:04:00;94338.78;;;11.81;100.00
5777;BME280;2914;42.668;23.346;2023-03-22T09:06:30;94339.97;;;11.83;100.00
5777;BME280;2914;42.668;23.346;2023-03-22T09:08:59;94339.91;;;11.75;100.00
5777;BME280;2914;42.668;23.346;2023-03-22T09:11:28;94348.34;;;11.78;100.00
5777;BME280;2914;42.668;23.346;2023-03-22T09:13:58;94345.73;;;11.82;100.00
5777;BME280;2914;42.668;23.346;2023-03-22T09:16:27;94346.60;;;11.87;100.00
5777;BME280;2914;42.668;23.346;2023-03-22T09:18:56;94345.59;;;11.88;100.00
5777;BME280;2914;42.668;23.346;2023-03-22T09:21:25;94350.83;;;11.80;100.00
5777;BME280;2914;42.668;23.346;2023-03-22T09:23:55;94347.27;;;11.89;100.00
5777;BME280;2914;42.668;23.346;2023-03-22T09:26:24;94355.28;;;11.97;100.00
5777;BME280;2914;42.668;23.346;2023-03-22T09:28:54;94353.30;;;11.95;100.00
5777;BME280;2914;42.668;23.346;2023-03-22T09:31:23;94354.11;;;11.96;100.00
5777;BME280;2914;42.668;23.346;2023-03-22T09:33:52;94351.63;;;11.94;100.00
5777;BME280;2914;42.668;23.346;2023-03-22T09:36:21;94347.23;;;11.85;100.00
5777;BME280;2914;42.668;23.346;2023-03-22T09:38:51;94349.45;;;11.71;100.00
5777;BME280;2914;42.668;23.346;2023-03-22T09:44:01;94352.52;;;11.85;100.00
5777;BME280;2914;42.668;23.346;2023-03-22T09:46:34;94351.45;;;11.74;100.00
5777;BME280;2914;42.668;23.346;2023-03-22T09:49:06;94349.66;;;11.78;100.00
5777;BME280;2914;42.668;23.346;2023-03-22T09:51:40;94348.25;;;11.66;100.00
5777;BME280;2914;42.668;23.346;2023-03-22T09:54:17;94351.30;;;11.75;100.00
5777;BME280;2914;42.668;23.346;2023-03-22T09:56:52;94348.19;;;11.80;100.00
5777;BME280;2914;42.668;23.346;2023-03-22T09:59:23;94350.11;;;11.69;100.00
5777;BME280;2914;42.668;23.346;2023-03-22T10:01:57;94352.81;;;11.78;100.00
5777;BME280;2914;42.668;23.346;2023-03-22T10:04:44;94350.67;;;11.81;100.00
5777;BME280;2914;42.668;23.346;2023-03-22T10:07:20;94355.86;;;11.87;100.00
5777;BME280;2914;42.668;23.346;2023-03-22T10:09:52;94354.06;;;11.92;100.00
5777;BME280;2914;42.668;23.346;2023-03-22T10:12:25;94362.55;;;11.95;100.00
5777;BME280;2914;42.668;23.346;2023-03-22T10:15:00;94357.60;;;12.00;100.00
5777;BME280;2914;42.668;23.346;2023-03-22T10:17:31;94366.67;;;11.98;100.00
5777;BME280;2914;42.668;23.346;2023-03-22T10:20:04;94363.37;;;11.96;100.00
5777;BME280;2914;42.668;23.346;2023-03-22T10:22:37;94372.30;;;11.99;100.00
5777;BME280;2914;42.668;23.346;2023-03-22T10:25:08;94366.54;;;11.99;100.00
5777;BME280;2914;42.668;23.346;2023-03-22T10:27:37;94371.72;;;12.09;100.00
5777;BME280;2914;42.668;23.346;2023-03-22T10:30:16;94371.61;;;12.19;99.55
5777;BME280;2914;42.668;23.346;2023-03-22T10:32:45;94373.41;;;12.18;99.55
5777;BME280;2914;42.668;23.346;2023-03-22T10:35:15;94359.53;;;12.16;99.48
5777;BME280;2914;42.668;23.346;2023-03-22T10:37:46;94361.98;;;12.14;99.15
5777;BME280;2914;42.668;23.346;2023-03-22T10:40:20;94364.15;;;12.18;99.39
5777;BME280;2914;42.668;23.346;2023-03-22T10:42:53;94363.17;;;12.19;100.00
5777;BME280;2914;42.668;23.346;2023-03-22T10:48:01;94363.40;;;12.30;100.00
5777;BME280;2914;42.668;23.346;2023-03-22T10:53:11;94364.23;;;12.35;98.62
5777;BME280;2914;42.668;23.346;2023-03-22T10:55:42;94367.23;;;12.36;98.40
5777;BME280;2914;42.668;23.346;2023-03-22T10:58:14;94365.56;;;12.35;98.55
5777;BME280;2914;42.668;23.346;2023-03-22T11:03:30;94356.84;;;12.43;99.06
5777;BME280;2914;42.668;23.346;2023-03-22T11:06:02;94365.09;;;12.35;98.04
5777;BME280;2914;42.668;23.346;2023-03-22T11:08:44;94356.48;;;12.37;97.57
5777;BME280;2914;42.668;23.346;2023-03-22T11:11:19;94353.56;;;12.45;96.93
5777;BME280;2914;42.668;23.346;2023-03-22T11:13:57;94353.70;;;12.43;97.02
5777;BME280;2914;42.668;23.346;2023-03-22T11:16:25;94353.24;;;12.48;97.07
5777;BME280;2914;42.668;23.346;2023-03-22T11:18:57;94352.72;;;12.44;97.24
5777;BME280;2914;42.668;23.346;2023-03-22T11:21:30;94353.06;;;12.45;97.65
5777;BME280;2914;42.668;23.346;2023-03-22T11:24:03;94350.88;;;12.36;98.87
5777;BME280;2914;42.668;23.346;2023-03-22T11:26:35;94354.33;;;12.33;99.23
5777;BME280;2914;42.668;23.346;2023-03-22T11:29:13;94349.05;;;12.37;99.12
5777;BME280;2914;42.668;23.346;2023-03-22T11:31:56;94351.38;;;12.40;98.69
5777;BME280;2914;42.668;23.346;2023-03-22T11:34:27;94341.99;;;12.50;97.77
5777;BME280;2914;42.668;23.346;2023-03-22T11:36:59;94342.34;;;12.51;97.13
5777;BME280;2914;42.668;23.346;2023-03-22T11:39:29;94346.30;;;12.51;96.94
5777;BME280;2914;42.668;23.346;2023-03-22T11:41:59;94345.33;;;12.52;96.92
5777;BME280;2914;42.668;23.346;2023-03-22T11:44:33;94348.95;;;12.51;96.93
5777;BME280;2914;42.668;23.346;2023-03-22T11:47:06;94342.84;;;12.50;96.15
5777;BME280;2914;42.668;23.346;2023-03-22T11:49:41;94341.70;;;12.53;95.51
5777;BME280;2914;42.668;23.346;2023-03-22T11:52:14;94339.70;;;12.55;95.00
5777;BME280;2914;42.668;23.346;2023-03-22T11:54:42;94345.81;;;12.55;94.44
5777;BME280;2914;42.668;23.346;2023-03-22T11:57:15;94346.16;;;12.56;94.04
5777;BME280;2914;42.668;23.346;2023-03-22T11:59:49;94349.78;;;12.55;94.19
5777;BME280;2914;42.668;23.346;2023-03-22T12:02:23;94350.45;;;12.53;92.71
5777;BME280;2914;42.668;23.346;2023-03-22T12:04:58;94352.30;;;12.57;92.05
5777;BME280;2914;42.668;23.346;2023-03-22T12:07:29;94353.63;;;12.57;91.68
5777;BME280;2914;42.668;23.346;2023-03-22T12:10:02;94348.46;;;12.55;92.08
5777;BME280;2914;42.668;23.346;2023-03-22T12:12:36;94352.31;;;12.61;92.04
5777;BME280;2914;42.668;23.346;2023-03-22T12:15:11;94348.98;;;12.59;93.51
5777;BME280;2914;42.668;23.346;2023-03-22T12:20:33;94346.03;;;12.66;92.53
5777;BME280;2914;42.668;23.346;2023-03-22T12:23:11;94348.19;;;12.63;92.25
5777;BME280;2914;42.668;23.346;2023-03-22T12:25:41;94346.37;;;12.67;92.28
5777;BME280;2914;42.668;23.346;2023-03-22T12:28:14;94338.95;;;12.71;92.00
5777;BME280;2914;42.668;23.346;2023-03-22T12:30:45;94337.64;;;12.75;91.66
5777;BME280;2914;42.668;23.346;2023-03-22T12:35:55;94335.50;;;12.87;92.00
5777;BME280;2914;42.668;23.346;2023-03-22T12:41:14;94342.14;;;12.95;91.59
5777;BME280;2914;42.668;23.346;2023-03-22T12:43:49;94337.83;;;12.82;90.67
5777;BME280;2914;42.668;23.346;2023-03-22T12:46:22;94331.51;;;12.79;90.45
5777;BME280;2914;42.668;23.346;2023-03-22T12:48:55;94330.86;;;12.77;90.37
5777;BME280;2914;42.668;23.346;2023-03-22T12:51:25;94334.85;;;12.85;91.17
5777;BME280;2914;42.668;23.346;2023-03-22T12:56:36;94332.53;;;12.82;91.72
5777;BME280;2914;42.668;23.346;2023-03-22T12:59:11;94332.84;;;12.79;90.68
5777;BME280;2914;42.668;23.346;2023-03-22T13:01:44;94336.16;;;12.81;89.30
5777;BME280;2914;42.668;23.346;2023-03-22T13:04:46;94336.17;;;12.85;88.83
5777;BME280;2914;42.668;23.346;2023-03-22T13:07:29;94337.98;;;12.88;87.56
5777;BME280;2914;42.668;23.346;2023-03-22T13:09:50;94335.52;;;12.91;87.34
5777;BME280;2914;42.668;23.346;2023-03-22T13:12:31;94335.34;;;12.93;86.77
5777;BME280;2914;42.668;23.346;2023-03-22T13:15:28;94331.08;;;12.96;86.67
5777;BME280;2914;42.668;23.346;2023-03-22T13:17:58;94327.88;;;12.80;86.27
5777;BME280;2914;42.668;23.346;2023-03-22T13:20:29;94332.97;;;12.69;86.46
5777;BME280;2914;42.668;23.346;2023-03-22T13:26:11;94330.19;;;12.79;87.39
5777;BME280;2914;42.668;23.346;2023-03-22T13:28:39;94326.22;;;12.79;87.66
5777;BME280;2914;42.668;23.346;2023-03-22T13:31:19;94322.93;;;12.81;87.85
5777;BME280;2914;42.668;23.346;2023-03-22T13:33:52;94315.17;;;12.87;88.42
5777;BME280;2914;42.668;23.346;2023-03-22T13:36:24;94315.34;;;12.86;89.35
5777;BME280;2914;42.668;23.346;2023-03-22T13:38:56;94320.95;;;12.91;90.07
5777;BME280;2914;42.668;23.346;2023-03-22T13:41:28;94317.84;;;12.96;90.50
5777;BME280;2914;42.668;23.346;2023-03-22T13:43:59;94312.72;;;12.98;91.61
5777;BME280;2914;42.668;23.346;2023-03-22T13:46:44;94321.81;;;12.96;92.65
5777;BME280;2914;42.668;23.346;2023-03-22T13:49:42;94319.47;;;12.97;92.72
5777;BME280;2914;42.668;23.346;2023-03-22T13:52:25;94329.25;;;12.96;94.15
5777;BME280;2914;42.668;23.346;2023-03-22T13:54:57;94320.66;;;12.94;95.17
5777;BME280;2914;42.668;23.346;2023-03-22T14:00:40;94330.50;;;12.71;91.25
5777;BME280;2914;42.668;23.346;2023-03-22T14:03:28;94328.29;;;12.50;89.41
5777;BME280;2914;42.668;23.346;2023-03-22T14:08:44;94324.89;;;12.32;91.98
5777;BME280;2914;42.668;23.346;2023-03-22T14:14:03;94323.09;;;12.32;92.50
5777;BME280;2914;42.668;23.346;2023-03-22T14:19:17;94317.12;;;12.30;92.63
5777;BME280;2914;42.668;23.346;2023-03-22T14:24:29;94322.47;;;12.08;93.53
5777;BME280;2914;42.668;23.346;2023-03-22T14:29:43;94319.70;;;12.18;93.52
5777;BME280;2914;42.668;23.346;2023-03-22T14:34:57;94319.30;;;12.39;93.82
5777;BME280;2914;42.668;23.346;2023-03-22T14:40:16;94320.84;;;12.54;92.53
5777;BME280;2914;42.668;23.346;2023-03-22T14:45:32;94324.06;;;12.74;92.28
5777;BME280;2914;42.668;23.346;2023-03-22T14:48:01;94323.26;;;12.78;91.11
5777;BME280;2914;42.668;23.346;2023-03-22T14:50:30;94333.84;;;12.78;91.20
5777;BME280;2914;42.668;23.346;2023-03-22T14:55:38;94336.84;;;12.91;91.17